• Join FlightAware (Why Join?)
  • Login
  • US Flag GB Flag 
11:30 EST


 

Airport Tracker/Info


-or-


 

Live Flight TrackerFlight Track Log ✈ CJT620 ✈ 19-Apr-2013 ✈ CYHZ - CYYT

Flight Track Log - Related Links

Times and Time Zones

All times are in EDT time to prevent confusion due to time zone crossing. See the CJT620 flight status page for this flight to view local times or setup timezone preferences in your user account.

Time Position Orientation Groundspeed Altitude Reporting Facility
EDT Latitude Longitude Course Direction KTS MPH feet Rate Location/Type
03:56 44.8333 -63.5167 60° Northeast 130 150 4,000  Level Moncton Center
03:57 44.8000 -63.5333 200° South 180 207 5,900 2,700 Climbing Moncton Center
03:58 44.8000 -63.4000 90° East 320 368 9,500 3,000 Climbing Moncton Center
03:59 44.8500 -63.2667 62° Northeast 370 426 12,000 2,340 Climbing Moncton Center
04:00 44.8833 -63.1167 73° East 440 506 14,200 2,760 Climbing Moncton Center
04:01 45.1934 -62.6583 60° Northeast  Level FlightAware Approximate
04:01 44.9500 -62.9500 60° Northeast 460 529 17,600  Level Moncton Center
04:02 45.0000 -62.7833 67° East 470 541 20,200 2,640 Climbing Moncton Center
04:03 45.0500 -62.6000 69° East 490 564 22,900 2,400 Climbing Moncton Center
04:04 45.1000 -62.4333 67° East 500 575 25,100 2,160 Climbing Moncton Center
04:04 45.1333 -62.3000 70° East 510 587 26,600 2,160 Climbing Gander Center
04:05 45.1500 -62.2333 70° East 510 587 27,300 2,580 Climbing Moncton Center
04:06 45.2167 -62.0500 63° Northeast 510 587 30,000 2,160 Climbing Moncton Center
04:07 45.2667 -61.8500 70° East 510 587 31,700 1,800 Climbing Moncton Center
04:07 45.3167 -61.7333 59° Northeast 520 598 33,100 1,920 Climbing Gander Center
04:08 45.3667 -61.5500 69° East 520 598 35,000 1,440 Climbing Gander Center
04:09 45.3833 -61.4833 70° East 510 587 35,000  Level Moncton Center
04:10 45.4333 -61.3000 69° East 510 587 35,000  Level Moncton Center
04:11 45.5000 -61.1333 60° Northeast 510 587 35,000  Level Moncton Center
04:12 45.5333 -60.9333 77° East 510 587 35,000  Level Moncton Center
04:13 45.6000 -60.7333 64° Northeast 510 587 35,000  Level Moncton Center
04:14 45.6500 -60.5500 69° East 510 587 35,000  Level Moncton Center
04:15 45.7000 -60.3667 69° East 520 598 35,000  Level Moncton Center
04:16 45.7500 -60.1500 72° East 520 598 35,000  Level Moncton Center
04:17 45.8000 -59.9833 67° East 520 598 35,000  Level Moncton Center
04:18 45.8667 -59.7500 68° East 520 598 35,000  Level Moncton Center
04:18 45.9000 -59.6500 64° Northeast 530 610 35,000  Level Gander Center
04:19 45.9000 -59.5833 90° East 520 598 35,000  Level Moncton Center
04:20 45.9667 -59.3667 66° East 530 610 35,000  Level Moncton Center
04:21 46.0167 -59.1833 69° East 530 610 35,000  Level Moncton Center
04:21 46.0500 -59.0500 70° East 530 610 35,000  Level Gander Center
04:22 46.1000 -58.8500 70° East 520 598 35,000  Level Gander Center
04:23 46.1167 -58.8000 64° Northeast 520 598 35,000  Level Moncton Center
04:23 46.1667 -58.6500 64° Northeast 520 598 35,000  Level Gander Center
04:24 46.1833 -58.6000 64° Northeast 520 598 35,000  Level Moncton Center
04:25 46.2167 -58.4000 76° East 520 598 35,000  Level Moncton Center
04:25 46.2500 -58.2667 70° East 520 598 35,000  Level Gander Center
04:26 46.3000 -58.0667 70° East 520 598 35,000  Level Gander Center
04:27 46.3167 -58.0000 70° East 520 598 35,000  Level Moncton Center
04:28 46.3667 -57.8167 68° East 520 598 35,000  Level Moncton Center
04:28 46.4000 -57.6833 70° East 520 598 35,000  Level Gander Center
04:29 46.4000 -57.6000 90° East 520 598 35,000  Level Moncton Center
04:30 46.4667 -57.4167 62° Northeast 520 598 35,000  Level Moncton Center
04:31 46.5000 -57.2167 76° East 510 587 35,000  Level Moncton Center
04:32 46.5500 -57.0167 70° East 510 587 35,000  Level Moncton Center
04:33 46.6000 -56.8167 70° East 510 587 35,000  Level Moncton Center
04:33 46.6333 -56.6833 70° East 520 598 35,000  Level Gander Center
04:34 46.6500 -56.6167 70° East 520 598 35,000  Level Moncton Center
04:35 46.7000 -56.4333 68° East 510 587 35,000  Level Moncton Center
04:36 46.7500 -56.2000 73° East 520 598 35,000  Level Moncton Center
04:37 46.7833 -56.0333 74° East 520 598 35,000  Level Moncton Center
04:38 46.8333 -55.8167 71° East 520 598 35,000  Level Moncton Center
04:39 46.8667 -55.6167 76° East 520 598 35,000  Level Moncton Center
04:39 46.9167 -55.4833 61° Northeast 520 598 35,000  Level Gander Center
04:40 46.9500 -55.2833 76° East 520 598 35,000  Level Gander Center
04:41 47.0000 -55.0833 70° East 520 598 35,000  Level Gander Center
04:42 47.0500 -54.8833 70° East 520 598 35,000  Level Gander Center
04:43 47.0667 -54.8167 70° East 520 598 35,000 -660 Level Moncton Center
04:44 47.1000 -54.6167 76° East 520 598 34,200 -1,800 Descending Moncton Center
04:44 47.1333 -54.4833 70° East 510 587 32,000 -3,420 Descending Gander Center
04:45 47.1667 -54.2667 77° East 520 598 28,500 -4,080 Descending Gander Center
04:46 47.2333 -54.0667 64° Northeast 520 598 23,900 -4,020 Descending Gander Center
04:47 47.2833 -53.8833 68° East 520 598 20,500 -3,180 Descending Gander Center
04:48 47.3167 -53.7167 74° East 500 575 17,600 -3,840 Descending Gander Center
04:49 47.3833 -53.5333 62° Northeast 460 529 12,900 -3,780 Descending Gander Center
04:50 47.4500 -53.4000 53° Northeast 400 460 10,100 -2,700 Descending Gander Center
04:51 47.5167 -53.2833 50° Northeast 330 380 7,500 -1,920 Descending Gander Center
04:52 47.5500 -53.2000 59° Northeast 290 334 6,300 -1,020 Descending Gander Center
04:53 47.5833 -53.1333 53° Northeast 250 288 5,500 -900 Descending Gander Center
04:54 47.5833 -53.0167 90° East 230 265 4,500 -1,080 Descending Gander Center
04:55 47.6000 -52.9167 76° East 230 265 3,400 -1,200 Descending Gander Center
04:56 47.6000 -52.8500 90° East 220 253 2,200 -1,140 Descending Gander Center
04:57 47.6000 -52.7667 90° East 190 219 1,200 -900 Descending Gander Center
04:58 47.6000 -52.7167 90° East 130 150 500 -720 Descending Gander Center